sensor_id;sensor_type;location;lat;lon;timestamp;pressure;altitude;pressure_sealevel;temperature;humidity
11856;BME280;5987;53.140;8.904;2023-07-13T00:00:41;101303.97;;;14.68;100.00
11856;BME280;5987;53.140;8.904;2023-07-13T00:03:45;101304.19;;;14.63;100.00
11856;BME280;5987;53.140;8.904;2023-07-13T00:06:49;101302.38;;;14.64;100.00
11856;BME280;5987;53.140;8.904;2023-07-13T00:09:53;101299.84;;;14.61;100.00
11856;BME280;5987;53.140;8.904;2023-07-13T00:12:58;101299.09;;;14.58;100.00
11856;BME280;5987;53.140;8.904;2023-07-13T00:16:02;101303.72;;;14.53;100.00
11856;BME280;5987;53.140;8.904;2023-07-13T00:19:06;101313.28;;;14.56;100.00
11856;BME280;5987;53.140;8.904;2023-07-13T00:22:09;101310.50;;;14.59;100.00
11856;BME280;5987;53.140;8.904;2023-07-13T00:25:14;101309.50;;;14.62;100.00
11856;BME280;5987;53.140;8.904;2023-07-13T00:28:21;101316.78;;;14.56;100.00
11856;BME280;5987;53.140;8.904;2023-07-13T00:31:25;101313.78;;;14.45;100.00
11856;BME280;5987;53.140;8.904;2023-07-13T00:34:30;101316.41;;;14.45;100.00
11856;BME280;5987;53.140;8.904;2023-07-13T00:37:34;101323.41;;;14.46;100.00
11856;BME280;5987;53.140;8.904;2023-07-13T00:40:39;101313.09;;;14.40;100.00
11856;BME280;5987;53.140;8.904;2023-07-13T00:43:44;101319.91;;;14.46;100.00
11856;BME280;5987;53.140;8.904;2023-07-13T00:46:48;101320.59;;;14.30;100.00
11856;BME280;5987;53.140;8.904;2023-07-13T00:49:52;101320.47;;;14.33;100.00
11856;BME280;5987;53.140;8.904;2023-07-13T00:52:56;101324.75;;;14.36;100.00
11856;BME280;5987;53.140;8.904;2023-07-13T00:56:03;101332.19;;;14.28;100.00
11856;BME280;5987;53.140;8.904;2023-07-13T00:59:10;101324.88;;;14.33;100.00
11856;BME280;5987;53.140;8.904;2023-07-13T01:02:16;101317.91;;;14.32;100.00
11856;BME280;5987;53.140;8.904;2023-07-13T01:05:22;101324.19;;;14.29;100.00
11856;BME280;5987;53.140;8.904;2023-07-13T01:08:26;101320.66;;;14.29;100.00
11856;BME280;5987;53.140;8.904;2023-07-13T01:11:30;101322.31;;;14.31;100.00
11856;BME280;5987;53.140;8.904;2023-07-13T01:14:36;101319.03;;;14.26;100.00
11856;BME280;5987;53.140;8.904;2023-07-13T01:17:39;101316.34;;;14.28;100.00
11856;BME280;5987;53.140;8.904;2023-07-13T01:20:54;101319.16;;;14.23;100.00
11856;BME280;5987;53.140;8.904;2023-07-13T01:23:58;101318.16;;;14.26;100.00
11856;BME280;5987;53.140;8.904;2023-07-13T01:27:03;101319.03;;;14.26;100.00
11856;BME280;5987;53.140;8.904;2023-07-13T01:30:09;101313.63;;;14.29;100.00
11856;BME280;5987;53.140;8.904;2023-07-13T01:33:15;101307.66;;;14.24;100.00
11856;BME280;5987;53.140;8.904;2023-07-13T01:36:21;101305.25;;;14.19;100.00
11856;BME280;5987;53.140;8.904;2023-07-13T01:39:25;101309.47;;;14.23;100.00
11856;BME280;5987;53.140;8.904;2023-07-13T01:42:29;101306.53;;;14.30;100.00
11856;BME280;5987;53.140;8.904;2023-07-13T01:45:33;101311.31;;;14.21;100.00
11856;BME280;5987;53.140;8.904;2023-07-13T01:48:37;101311.16;;;14.24;100.00
11856;BME280;5987;53.140;8.904;2023-07-13T01:51:42;101303.22;;;14.24;100.00
11856;BME280;5987;53.140;8.904;2023-07-13T01:54:46;101303.22;;;14.24;100.00
11856;BME280;5987;53.140;8.904;2023-07-13T01:57:50;101299.03;;;14.20;100.00
11856;BME280;5987;53.140;8.904;2023-07-13T02:00:53;101301.78;;;14.17;100.00
11856;BME280;5987;53.140;8.904;2023-07-13T02:03:57;101306.31;;;14.15;100.00
11856;BME280;5987;53.140;8.904;2023-07-13T02:07:03;101307.50;;;14.08;100.00
11856;BME280;5987;53.140;8.904;2023-07-13T02:10:10;101305.84;;;14.05;100.00
11856;BME280;5987;53.140;8.904;2023-07-13T02:13:14;101306.69;;;14.06;100.00
11856;BME280;5987;53.140;8.904;2023-07-13T02:16:17;101305.00;;;14.05;100.00
11856;BME280;5987;53.140;8.904;2023-07-13T02:19:21;101309.75;;;13.97;100.00
11856;BME280;5987;53.140;8.904;2023-07-13T02:22:27;101313.97;;;14.01;100.00
11856;BME280;5987;53.140;8.904;2023-07-13T02:25:30;101305.09;;;14.02;100.00
11856;BME280;5987;53.140;8.904;2023-07-13T02:28:34;101316.88;;;14.15;100.00
11856;BME280;5987;53.140;8.904;2023-07-13T02:31:38;101303.44;;;14.20;100.00
11856;BME280;5987;53.140;8.904;2023-07-13T02:34:42;101293.03;;;14.17;100.00
11856;BME280;5987;53.140;8.904;2023-07-13T02:37:47;101295.44;;;14.02;100.00
11856;BME280;5987;53.140;8.904;2023-07-13T02:40:51;101296.00;;;14.09;100.00
11856;BME280;5987;53.140;8.904;2023-07-13T02:43:55;101286.22;;;14.11;100.00
11856;BME280;5987;53.140;8.904;2023-07-13T02:47:05;101290.06;;;14.04;100.00
11856;BME280;5987;53.140;8.904;2023-07-13T02:50:09;101285.78;;;14.01;100.00
11856;BME280;5987;53.140;8.904;2023-07-13T02:53:14;101286.84;;;13.97;100.00
11856;BME280;5987;53.140;8.904;2023-07-13T02:56:23;101283.59;;;14.11;100.00
11856;BME280;5987;53.140;8.904;2023-07-13T02:59:27;101271.78;;;13.99;100.00
11856;BME280;5987;53.140;8.904;2023-07-13T03:02:31;101285.13;;;13.96;100.00
11856;BME280;5987;53.140;8.904;2023-07-13T03:05:36;101296.81;;;13.90;100.00
11856;BME280;5987;53.140;8.904;2023-07-13T03:08:42;101302.69;;;13.97;100.00
11856;BME280;5987;53.140;8.904;2023-07-13T03:11:46;101297.25;;;14.00;100.00
11856;BME280;5987;53.140;8.904;2023-07-13T03:14:51;101296.41;;;14.00;100.00
11856;BME280;5987;53.140;8.904;2023-07-13T03:17:54;101294.16;;;13.90;100.00
11856;BME280;5987;53.140;8.904;2023-07-13T03:20:58;101298.38;;;13.95;100.00
11856;BME280;5987;53.140;8.904;2023-07-13T03:24:04;101301.94;;;13.94;100.00
11856;BME280;5987;53.140;8.904;2023-07-13T03:27:08;101302.22;;;14.08;100.00
11856;BME280;5987;53.140;8.904;2023-07-13T03:30:13;101299.22;;;14.16;100.00
11856;BME280;5987;53.140;8.904;2023-07-13T03:33:16;101299.81;;;14.22;100.00
11856;BME280;5987;53.140;8.904;2023-07-13T03:36:23;101300.47;;;14.28;100.00
11856;BME280;5987;53.140;8.904;2023-07-13T03:39:29;101306.97;;;14.39;100.00
11856;BME280;5987;53.140;8.904;2023-07-13T03:42:32;101305.38;;;14.56;100.00
11856;BME280;5987;53.140;8.904;2023-07-13T03:45:38;101304.50;;;14.55;100.00
11856;BME280;5987;53.140;8.904;2023-07-13T03:48:43;101307.09;;;14.76;100.00
11856;BME280;5987;53.140;8.904;2023-07-13T03:51:48;101306.94;;;14.79;100.00
11856;BME280;5987;53.140;8.904;2023-07-13T03:54:57;101303.53;;;14.77;100.00
11856;BME280;5987;53.140;8.904;2023-07-13T03:58:25;101293.03;;;14.75;100.00
11856;BME280;5987;53.140;8.904;2023-07-13T04:01:31;101303.25;;;14.83;100.00
11856;BME280;5987;53.140;8.904;2023-07-13T04:04:35;101308.69;;;14.80;100.00
11856;BME280;5987;53.140;8.904;2023-07-13T04:07:39;101309.41;;;14.84;100.00
11856;BME280;5987;53.140;8.904;2023-07-13T04:10:45;101307.84;;;14.80;100.00
11856;BME280;5987;53.140;8.904;2023-07-13T04:13:49;101309.44;;;14.82;100.00
11856;BME280;5987;53.140;8.904;2023-07-13T04:16:53;101305.31;;;14.96;100.00
11856;BME280;5987;53.140;8.904;2023-07-13T04:19:57;101308.44;;;15.04;100.00
11856;BME280;5987;53.140;8.904;2023-07-13T04:23:02;101307.66;;;15.02;100.00
11856;BME280;5987;53.140;8.904;2023-07-13T04:26:08;101308.94;;;14.93;100.00
11856;BME280;5987;53.140;8.904;2023-07-13T04:29:12;101304.94;;;15.03;100.00
11856;BME280;5987;53.140;8.904;2023-07-13T04:32:16;101310.78;;;15.10;100.00
11856;BME280;5987;53.140;8.904;2023-07-13T04:35:20;101312.34;;;15.14;100.00
11856;BME280;5987;53.140;8.904;2023-07-13T04:38:27;101305.91;;;15.20;100.00
11856;BME280;5987;53.140;8.904;2023-07-13T04:41:32;101308.63;;;15.18;100.00
11856;BME280;5987;53.140;8.904;2023-07-13T04:44:36;101302.66;;;15.32;100.00
11856;BME280;5987;53.140;8.904;2023-07-13T04:47:40;101313.09;;;15.35;100.00
11856;BME280;5987;53.140;8.904;2023-07-13T04:50:46;101315.81;;;15.34;100.00
11856;BME280;5987;53.140;8.904;2023-07-13T04:53:49;101317.72;;;15.49;100.00
11856;BME280;5987;53.140;8.904;2023-07-13T04:57:01;101312.88;;;15.57;100.00
11856;BME280;5987;53.140;8.904;2023-07-13T05:00:07;101323.25;;;15.62;100.00
11856;BME280;5987;53.140;8.904;2023-07-13T05:03:11;101314.38;;;15.63;100.00
11856;BME280;5987;53.140;8.904;2023-07-13T05:06:15;101312.44;;;15.67;100.00
11856;BME280;5987;53.140;8.904;2023-07-13T05:09:19;101315.41;;;15.78;100.00
11856;BME280;5987;53.140;8.904;2023-07-13T05:12:24;101320.47;;;15.83;100.00
11856;BME280;5987;53.140;8.904;2023-07-13T05:15:28;101320.88;;;15.92;100.00
11856;BME280;5987;53.140;8.904;2023-07-13T05:18:32;101319.69;;;15.98;100.00
11856;BME280;5987;53.140;8.904;2023-07-13T05:21:36;101333.00;;;15.97;100.00
11856;BME280;5987;53.140;8.904;2023-07-13T05:24:40;101324.56;;;16.06;100.00
11856;BME280;5987;53.140;8.904;2023-07-13T05:27:56;101327.84;;;16.11;100.00
11856;BME280;5987;53.140;8.904;2023-07-13T05:31:08;101326.34;;;16.56;100.00
11856;BME280;5987;53.140;8.904;2023-07-13T05:34:13;101336.34;;;16.51;100.00
11856;BME280;5987;53.140;8.904;2023-07-13T05:37:16;101338.84;;;16.37;100.00
11856;BME280;5987;53.140;8.904;2023-07-13T05:40:20;101342.59;;;16.50;100.00
11856;BME280;5987;53.140;8.904;2023-07-13T05:43:26;101342.00;;;16.27;100.00
11856;BME280;5987;53.140;8.904;2023-07-13T05:46:30;101344.06;;;16.38;100.00
11856;BME280;5987;53.140;8.904;2023-07-13T05:49:34;101351.00;;;16.41;100.00
11856;BME280;5987;53.140;8.904;2023-07-13T05:52:38;101344.31;;;16.34;100.00
11856;BME280;5987;53.140;8.904;2023-07-13T05:55:42;101353.22;;;16.33;100.00
11856;BME280;5987;53.140;8.904;2023-07-13T05:58:49;101354.16;;;16.32;100.00
11856;BME280;5987;53.140;8.904;2023-07-13T06:01:53;101350.28;;;16.71;100.00
11856;BME280;5987;53.140;8.904;2023-07-13T06:04:57;101351.28;;;17.49;100.00
11856;BME280;5987;53.140;8.904;2023-07-13T06:08:01;101344.78;;;17.23;100.00
11856;BME280;5987;53.140;8.904;2023-07-13T06:11:08;101352.72;;;17.55;100.00
11856;BME280;5987;53.140;8.904;2023-07-13T06:14:14;101356.75;;;17.77;100.00
11856;BME280;5987;53.140;8.904;2023-07-13T06:17:18;101349.97;;;18.17;100.00
11856;BME280;5987;53.140;8.904;2023-07-13T06:20:22;101339.59;;;18.56;100.00
11856;BME280;5987;53.140;8.904;2023-07-13T06:23:26;101348.34;;;18.58;100.00
11856;BME280;5987;53.140;8.904;2023-07-13T06:26:30;101358.00;;;18.02;100.00
11856;BME280;5987;53.140;8.904;2023-07-13T06:29:35;101367.81;;;17.85;100.00
11856;BME280;5987;53.140;8.904;2023-07-13T06:32:39;101369.94;;;17.94;100.00
11856;BME280;5987;53.140;8.904;2023-07-13T06:35:43;101370.06;;;18.07;100.00
11856;BME280;5987;53.140;8.904;2023-07-13T06:38:47;101359.56;;;18.49;100.00
11856;BME280;5987;53.140;8.904;2023-07-13T06:41:51;101367.34;;;18.52;100.00
11856;BME280;5987;53.140;8.904;2023-07-13T06:44:56;101363.16;;;18.77;100.00
11856;BME280;5987;53.140;8.904;2023-07-13T06:47:59;101364.97;;;18.76;100.00
11856;BME280;5987;53.140;8.904;2023-07-13T06:51:04;101360.88;;;18.56;100.00
11856;BME280;5987;53.140;8.904;2023-07-13T06:54:08;101365.25;;;18.43;100.00
11856;BME280;5987;53.140;8.904;2023-07-13T06:57:11;101377.16;;;17.92;100.00
11856;BME280;5987;53.140;8.904;2023-07-13T07:00:17;101377.63;;;17.83;100.00
11856;BME280;5987;53.140;8.904;2023-07-13T07:03:21;101379.97;;;17.89;100.00
11856;BME280;5987;53.140;8.904;2023-07-13T07:06:25;101387.69;;;17.78;100.00
11856;BME280;5987;53.140;8.904;2023-07-13T07:09:30;101384.50;;;17.87;100.00
11856;BME280;5987;53.140;8.904;2023-07-13T07:12:33;101380.53;;;18.54;100.00
11856;BME280;5987;53.140;8.904;2023-07-13T07:15:38;101378.47;;;18.44;100.00
11856;BME280;5987;53.140;8.904;2023-07-13T07:18:42;101385.59;;;18.58;100.00
11856;BME280;5987;53.140;8.904;2023-07-13T07:21:46;101380.00;;;18.48;100.00
11856;BME280;5987;53.140;8.904;2023-07-13T07:24:50;101383.84;;;19.15;100.00
11856;BME280;5987;53.140;8.904;2023-07-13T07:27:53;101379.81;;;19.22;100.00
11856;BME280;5987;53.140;8.904;2023-07-13T07:31:02;101385.03;;;18.96;100.00
11856;BME280;5987;53.140;8.904;2023-07-13T07:34:08;101386.16;;;18.49;100.00
11856;BME280;5987;53.140;8.904;2023-07-13T07:37:14;101384.22;;;18.37;100.00
11856;BME280;5987;53.140;8.904;2023-07-13T07:40:20;101388.75;;;18.06;100.00
11856;BME280;5987;53.140;8.904;2023-07-13T07:43:27;101386.06;;;17.75;100.00
11856;BME280;5987;53.140;8.904;2023-07-13T07:46:32;101377.81;;;17.80;100.00
11856;BME280;5987;53.140;8.904;2023-07-13T07:49:37;101388.09;;;18.02;100.00
11856;BME280;5987;53.140;8.904;2023-07-13T07:52:41;101381.16;;;18.14;100.00
11856;BME280;5987;53.140;8.904;2023-07-13T07:55:46;101381.88;;;18.46;100.00
11856;BME280;5987;53.140;8.904;2023-07-13T07:58:53;101385.59;;;18.58;100.00
11856;BME280;5987;53.140;8.904;2023-07-13T08:02:01;101378.47;;;18.44;100.00
11856;BME280;5987;53.140;8.904;2023-07-13T08:05:08;101387.69;;;18.82;100.00
11856;BME280;5987;53.140;8.904;2023-07-13T08:08:16;101383.09;;;18.84;100.00
11856;BME280;5987;53.140;8.904;2023-07-13T08:11:21;101382.22;;;19.54;100.00
11856;BME280;5987;53.140;8.904;2023-07-13T08:14:28;101376.72;;;19.43;100.00
11856;BME280;5987;53.140;8.904;2023-07-13T08:17:53;101384.03;;;18.83;100.00
11856;BME280;5987;53.140;8.904;2023-07-13T08:21:03;101380.56;;;19.39;100.00
11856;BME280;5987;53.140;8.904;2023-07-13T08:24:06;101383.19;;;19.66;100.00
11856;BME280;5987;53.140;8.904;2023-07-13T08:27:10;101382.31;;;19.80;100.00
11856;BME280;5987;53.140;8.904;2023-07-13T08:30:14;101388.31;;;20.09;100.00
11856;BME280;5987;53.140;8.904;2023-07-13T08:33:22;101385.28;;;19.48;100.00
11856;BME280;5987;53.140;8.904;2023-07-13T08:36:26;101389.28;;;19.41;100.00
11856;BME280;5987;53.140;8.904;2023-07-13T08:39:30;101381.38;;;19.39;100.00
11856;BME280;5987;53.140;8.904;2023-07-13T08:42:39;101390.09;;;19.83;100.00
11856;BME280;5987;53.140;8.904;2023-07-13T08:45:53;101380.66;;;20.30;100.00
11856;BME280;5987;53.140;8.904;2023-07-13T08:49:04;101376.81;;;19.96;100.00
11856;BME280;5987;53.140;8.904;2023-07-13T08:52:17;101382.03;;;20.62;100.00
11856;BME280;5987;53.140;8.904;2023-07-13T08:55:30;101380.22;;;20.88;100.00
11856;BME280;5987;53.140;8.904;2023-07-13T08:58:37;101381.44;;;21.08;100.00
11856;BME280;5987;53.140;8.904;2023-07-13T09:02:20;101380.31;;;21.23;100.00
11856;BME280;5987;53.140;8.904;2023-07-13T09:05:31;101374.94;;;21.96;100.00
11856;BME280;5987;53.140;8.904;2023-07-13T09:08:51;101376.81;;;21.23;100.00
11856;BME280;5987;53.140;8.904;2023-07-13T09:12:09;101381.53;;;21.68;100.00
11856;BME280;5987;53.140;8.904;2023-07-13T09:15:28;101376.19;;;21.06;100.00
11856;BME280;5987;53.140;8.904;2023-07-13T09:18:38;101379.06;;;20.40;100.00
11856;BME280;5987;53.140;8.904;2023-07-13T09:21:45;101384.59;;;20.12;100.00
11856;BME280;5987;53.140;8.904;2023-07-13T09:25:01;101386.09;;;20.93;100.00
11856;BME280;5987;53.140;8.904;2023-07-13T09:28:18;101380.66;;;21.19;100.00
11856;BME280;5987;53.140;8.904;2023-07-13T09:31:30;101386.75;;;21.45;100.00
11856;BME280;5987;53.140;8.904;2023-07-13T09:34:37;101387.84;;;22.02;100.00
11856;BME280;5987;53.140;8.904;2023-07-13T09:37:45;101389.31;;;22.06;100.00
11856;BME280;5987;53.140;8.904;2023-07-13T09:41:07;101384.28;;;22.49;100.00
11856;BME280;5987;53.140;8.904;2023-07-13T09:44:28;101383.03;;;22.30;100.00
11856;BME280;5987;53.140;8.904;2023-07-13T09:47:39;101391.41;;;21.30;100.00
11856;BME280;5987;53.140;8.904;2023-07-13T09:50:44;101378.94;;;21.90;100.00
11856;BME280;5987;53.140;8.904;2023-07-13T09:53:49;101384.81;;;21.96;100.00
11856;BME280;5987;53.140;8.904;2023-07-13T09:56:58;101383.69;;;21.38;100.00
11856;BME280;5987;53.140;8.904;2023-07-13T10:00:03;101384.75;;;21.12;100.00
11856;BME280;5987;53.140;8.904;2023-07-13T10:03:19;101382.22;;;21.58;100.00
11856;BME280;5987;53.140;8.904;2023-07-13T10:06:24;101382.97;;;21.36;100.00
11856;BME280;5987;53.140;8.904;2023-07-13T10:09:30;101382.88;;;20.88;100.00
11856;BME280;5987;53.140;8.904;2023-07-13T10:12:38;101384.59;;;20.89;100.00
11856;BME280;5987;53.140;8.904;2023-07-13T10:15:42;101383.00;;;20.86;100.00
11856;BME280;5987;53.140;8.904;2023-07-13T10:18:49;101394.06;;;21.30;100.00
11856;BME280;5987;53.140;8.904;2023-07-13T10:21:56;101392.22;;;22.03;100.00
11856;BME280;5987;53.140;8.904;2023-07-13T10:25:13;101379.44;;;22.42;100.00
11856;BME280;5987;53.140;8.904;2023-07-13T10:28:28;101386.25;;;22.35;100.00
11856;BME280;5987;53.140;8.904;2023-07-13T10:31:41;101388.38;;;21.72;100.00
11856;BME280;5987;53.140;8.904;2023-07-13T10:34:48;101390.72;;;21.52;100.00
11856;BME280;5987;53.140;8.904;2023-07-13T10:38:00;101405.47;;;21.08;100.00
11856;BME280;5987;53.140;8.904;2023-07-13T10:41:16;101396.06;;;21.02;100.00
11856;BME280;5987;53.140;8.904;2023-07-13T10:44:26;101397.63;;;20.81;100.00
11856;BME280;5987;53.140;8.904;2023-07-13T10:47:32;101396.38;;;20.73;100.00
11856;BME280;5987;53.140;8.904;2023-07-13T10:50:40;101400.63;;;20.76;100.00
11856;BME280;5987;53.140;8.904;2023-07-13T10:53:45;101418.88;;;20.44;100.00
11856;BME280;5987;53.140;8.904;2023-07-13T10:57:14;101424.16;;;19.50;100.00
11856;BME280;5987;53.140;8.904;2023-07-13T11:00:20;101422.50;;;19.35;100.00
11856;BME280;5987;53.140;8.904;2023-07-13T11:03:28;101436.34;;;18.98;100.00
11856;BME280;5987;53.140;8.904;2023-07-13T11:06:38;101429.78;;;19.46;100.00
11856;BME280;5987;53.140;8.904;2023-07-13T11:09:43;101443.56;;;18.96;100.00
11856;BME280;5987;53.140;8.904;2023-07-13T11:12:54;101446.66;;;18.60;100.00
11856;BME280;5987;53.140;8.904;2023-07-13T11:15:57;101460.41;;;18.52;100.00
11856;BME280;5987;53.140;8.904;2023-07-13T11:19:41;101457.50;;;18.57;100.00
11856;BME280;5987;53.140;8.904;2023-07-13T11:22:48;101453.16;;;18.25;100.00
11856;BME280;5987;53.140;8.904;2023-07-13T11:25:52;101455.72;;;18.27;100.00
11856;BME280;5987;53.140;8.904;2023-07-13T11:28:57;101466.19;;;18.30;100.00
11856;BME280;5987;53.140;8.904;2023-07-13T11:32:23;101472.03;;;18.21;100.00
11856;BME280;5987;53.140;8.904;2023-07-13T11:35:29;101474.41;;;18.25;100.00
11856;BME280;5987;53.140;8.904;2023-07-13T11:38:39;101484.81;;;18.14;100.00
11856;BME280;5987;53.140;8.904;2023-07-13T11:41:48;101478.03;;;18.24;100.00
11856;BME280;5987;53.140;8.904;2023-07-13T11:44:54;101480.59;;;17.95;100.00
11856;BME280;5987;53.140;8.904;2023-07-13T11:48:28;101486.66;;;17.81;100.00
11856;BME280;5987;53.140;8.904;2023-07-13T11:51:36;101501.50;;;17.70;100.00
11856;BME280;5987;53.140;8.904;2023-07-13T11:54:48;101502.66;;;17.48;100.00
11856;BME280;5987;53.140;8.904;2023-07-13T11:58:00;101519.56;;;17.47;100.00
11856;BME280;5987;53.140;8.904;2023-07-13T12:01:16;101523.84;;;17.49;100.00
11856;BME280;5987;53.140;8.904;2023-07-13T12:04:26;101538.19;;;17.29;100.00
11856;BME280;5987;53.140;8.904;2023-07-13T12:07:33;101553.38;;;16.75;100.00
11856;BME280;5987;53.140;8.904;2023-07-13T12:10:37;101550.28;;;16.67;100.00
11856;BME280;5987;53.140;8.904;2023-07-13T12:13:40;101572.31;;;16.50;100.00
11856;BME280;5987;53.140;8.904;2023-07-13T12:16:47;101581.44;;;16.26;100.00
11856;BME280;5987;53.140;8.904;2023-07-13T12:19:53;101592.41;;;15.81;100.00
11856;BME280;5987;53.140;8.904;2023-07-13T12:22:56;101597.47;;;15.47;100.00
11856;BME280;5987;53.140;8.904;2023-07-13T12:26:04;101599.47;;;15.42;100.00
11856;BME280;5987;53.140;8.904;2023-07-13T12:29:13;101605.72;;;15.60;100.00
11856;BME280;5987;53.140;8.904;2023-07-13T12:32:20;101610.44;;;15.72;100.00
11856;BME280;5987;53.140;8.904;2023-07-13T12:35:25;101624.09;;;15.63;100.00
11856;BME280;5987;53.140;8.904;2023-07-13T12:38:32;101601.81;;;15.48;100.00
11856;BME280;5987;53.140;8.904;2023-07-13T12:41:36;101592.91;;;15.70;100.00
11856;BME280;5987;53.140;8.904;2023-07-13T12:44:41;101601.84;;;15.67;100.00
11856;BME280;5987;53.140;8.904;2023-07-13T12:47:52;101592.44;;;16.00;100.00
11856;BME280;5987;53.140;8.904;2023-07-13T12:51:01;101599.16;;;16.07;100.00
11856;BME280;5987;53.140;8.904;2023-07-13T12:54:17;101598.41;;;16.22;100.00
11856;BME280;5987;53.140;8.904;2023-07-13T12:57:22;101594.25;;;16.36;100.00
11856;BME280;5987;53.140;8.904;2023-07-13T13:00:30;101596.47;;;16.62;100.00
11856;BME280;5987;53.140;8.904;2023-07-13T13:07:09;101578.91;;;16.60;100.00
11856;BME280;5987;53.140;8.904;2023-07-13T13:10:13;101584.28;;;16.58;100.00
11856;BME280;5987;53.140;8.904;2023-07-13T13:13:17;101590.69;;;16.72;100.00
11856;BME280;5987;53.140;8.904;2023-07-13T13:16:30;101600.38;;;16.90;100.00
11856;BME280;5987;53.140;8.904;2023-07-13T13:19:35;101606.63;;;17.24;100.00
11856;BME280;5987;53.140;8.904;2023-07-13T13:22:40;101599.06;;;17.32;100.00
11856;BME280;5987;53.140;8.904;2023-07-13T13:25:46;101595.03;;;17.59;100.00
11856;BME280;5987;53.140;8.904;2023-07-13T13:28:50;101592.25;;;18.10;100.00
11856;BME280;5987;53.140;8.904;2023-07-13T13:31:55;101583.16;;;18.14;100.00
11856;BME280;5987;53.140;8.904;2023-07-13T13:35:00;101577.34;;;17.91;100.00
11856;BME280;5987;53.140;8.904;2023-07-13T13:38:11;101576.53;;;18.21;100.00
11856;BME280;5987;53.140;8.904;2023-07-13T13:41:17;101581.72;;;18.24;100.00
11856;BME280;5987;53.140;8.904;2023-07-13T13:44:22;101578.94;;;18.42;100.00
11856;BME280;5987;53.140;8.904;2023-07-13T13:47:31;101580.69;;;18.57;100.00
11856;BME280;5987;53.140;8.904;2023-07-13T13:50:37;101576.72;;;18.64;100.00
11856;BME280;5987;53.140;8.904;2023-07-13T13:53:42;101584.53;;;18.37;100.00
11856;BME280;5987;53.140;8.904;2023-07-13T13:56:51;101583.03;;;18.47;100.00
11856;BME280;5987;53.140;8.904;2023-07-13T13:59:55;101578.81;;;18.59;100.00
11856;BME280;5987;53.140;8.904;2023-07-13T14:02:59;101581.41;;;18.45;100.00
11856;BME280;5987;53.140;8.904;2023-07-13T14:06:02;101585.09;;;18.42;100.00
11856;BME280;5987;53.140;8.904;2023-07-13T14:09:10;101589.72;;;18.69;100.00
11856;BME280;5987;53.140;8.904;2023-07-13T14:12:15;101586.66;;;19.07;100.00
11856;BME280;5987;53.140;8.904;2023-07-13T14:15:27;101581.03;;;19.12;100.00
11856;BME280;5987;53.140;8.904;2023-07-13T14:18:33;101573.34;;;19.22;100.00
11856;BME280;5987;53.140;8.904;2023-07-13T14:21:37;101578.00;;;19.32;100.00
11856;BME280;5987;53.140;8.904;2023-07-13T14:24:42;101574.47;;;19.17;100.00
11856;BME280;5987;53.140;8.904;2023-07-13T14:27:51;101567.16;;;20.06;100.00
11856;BME280;5987;53.140;8.904;2023-07-13T14:30:58;101567.22;;;20.19;100.00
11856;BME280;5987;53.140;8.904;2023-07-13T14:34:02;101567.88;;;20.22;100.00
11856;BME280;5987;53.140;8.904;2023-07-13T14:37:12;101576.91;;;20.20;100.00
11856;BME280;5987;53.140;8.904;2023-07-13T14:40:29;101583.53;;;20.00;100.00
11856;BME280;5987;53.140;8.904;2023-07-13T14:43:33;101585.59;;;19.82;100.00
11856;BME280;5987;53.140;8.904;2023-07-13T14:46:37;101596.75;;;19.45;100.00
11856;BME280;5987;53.140;8.904;2023-07-13T14:49:44;101593.22;;;19.16;100.00
11856;BME280;5987;53.140;8.904;2023-07-13T14:52:50;101599.91;;;18.16;100.00
11856;BME280;5987;53.140;8.904;2023-07-13T14:55:55;101600.84;;;17.16;100.00
11856;BME280;5987;53.140;8.904;2023-07-13T14:58:59;101601.84;;;16.61;100.00
11856;BME280;5987;53.140;8.904;2023-07-13T15:02:09;101614.00;;;16.28;100.00
11856;BME280;5987;53.140;8.904;2023-07-13T15:05:19;101618.28;;;16.50;100.00
11856;BME280;5987;53.140;8.904;2023-07-13T15:08:24;101619.47;;;16.25;100.00
11856;BME280;5987;53.140;8.904;2023-07-13T15:11:29;101625.50;;;15.91;100.00
11856;BME280;5987;53.140;8.904;2023-07-13T15:14:33;101649.34;;;15.51;100.00
11856;BME280;5987;53.140;8.904;2023-07-13T15:17:41;101675.56;;;15.16;100.00
11856;BME280;5987;53.140;8.904;2023-07-13T15:20:48;101693.75;;;15.02;100.00
11856;BME280;5987;53.140;8.904;2023-07-13T15:23:52;101690.47;;;14.97;100.00
11856;BME280;5987;53.140;8.904;2023-07-13T15:26:57;101691.66;;;14.89;100.00
11856;BME280;5987;53.140;8.904;2023-07-13T15:30:01;101680.13;;;14.90;100.00
11856;BME280;5987;53.140;8.904;2023-07-13T15:33:14;101681.16;;;15.08;100.00
11856;BME280;5987;53.140;8.904;2023-07-13T15:36:21;101660.50;;;14.75;100.00
11856;BME280;5987;53.140;8.904;2023-07-13T15:39:25;101659.59;;;14.97;100.00
11856;BME280;5987;53.140;8.904;2023-07-13T15:42:30;101658.47;;;15.03;100.00
11856;BME280;5987;53.140;8.904;2023-07-13T15:45:37;101667.53;;;14.97;100.00
11856;BME280;5987;53.140;8.904;2023-07-13T15:48:41;101658.75;;;14.97;100.00
11856;BME280;5987;53.140;8.904;2023-07-13T15:51:48;101653.66;;;15.13;100.00
11856;BME280;5987;53.140;8.904;2023-07-13T15:55:01;101638.69;;;15.32;100.00
11856;BME280;5987;53.140;8.904;2023-07-13T15:58:12;101617.81;;;15.26;100.00
11856;BME280;5987;53.140;8.904;2023-07-13T16:01:18;101614.78;;;15.54;100.00
11856;BME280;5987;53.140;8.904;2023-07-13T16:04:22;101614.88;;;15.72;100.00
11856;BME280;5987;53.140;8.904;2023-07-13T16:07:26;101614.94;;;15.51;100.00
11856;BME280;5987;53.140;8.904;2023-07-13T16:10:37;101631.44;;;15.56;100.00
11856;BME280;5987;53.140;8.904;2023-07-13T16:13:45;101641.13;;;15.37;100.00
11856;BME280;5987;53.140;8.904;2023-07-13T16:16:49;101652.25;;;15.24;100.00
11856;BME280;5987;53.140;8.904;2023-07-13T16:19:53;101665.06;;;15.13;100.00